Warning: fopen(/var/www/metroair/shared/private/wxdata/TAF/AVWX/taf_KAMA): failed to open stream: Permission denied in /var/www/metroair/shared/private/library/orig_library/lib_airport.php on line 533

Warning: fwrite() expects parameter 1 to be resource, boolean given in /var/www/metroair/shared/private/library/orig_library/lib_airport.php on line 534

Warning: fclose() expects parameter 1 to be resource, boolean given in /var/www/metroair/shared/private/library/orig_library/lib_airport.php on line 535

MET2565 - Kansas City to Amarillo

Bombardier Dash-8-Q200
837AG
1 hr 45 mins
414 nm
Scheduled - Daily

Bid/PiRep Status

Bid was submitted on Oct 03 2016.

PiRep # 73559: Approved by Dave Nichols on October 5th, 2016 2:32 UTC

Departure

Departing from
Kansas City (MCI)
Departure gate
Scheduled Departure
GMT 1810
Local 1210
METAR KMCI 220553Z 18008KT 10SM CLR 07/01 A2986 RMK AO2 SLP109 T00720006 10194 20072 402220061 58010
TAF KMCI 220527Z 2206/2306 21007KT P6SM SKC FM221500 22012KT P6SM SCT250 FM230200 VRB04KT P6SM FEW250
  • No charts available

Arrival

Arriving at
Amarillo (AMA)
Arrival gate
A2
Scheduled Arrival
GMT 1955
Local 1355
METAR KAMA 220553Z AUTO 20009KT 10SM CLR 09/M02 A3000 RMK AO2 SLP128 T00941017 10217 20072 402441006 58007
TAF KAMA 220520Z 2206/2306 19008KT P6SM FEW300 FM221000 26011KT P6SM BKN300 FM230000 20010KT P6SM OVC250

Route Map

Planning Resources

FRACA,ICT,GAG, KAMA
WLDCT2 V12 PNH
WLDCT2.ICT J26 PNH
KMCI KENTN ICT ZENDA GAG PNH KAMA
FRACA ICT GAG PNH KAMA
Route:
OFP Layout:
Units:
Detailed Navlog:
ETOPS Planning:
Plan Stepclimbs:
Runway Analysis:
Include NOTAMS:
FIR NOTAMS:
Flight Maps:

Return Flights

MET2564
Bombardier Dash-8-Q200
1405 GMT
MET2566
Bombardier Dash-8-Q200
2015 GMT
MET2568
Bombardier Dash-8-Q200
0115 GMT

Popularity

Hub Current Bids PiReps this month Total PiReps
KMCI 0 0 13
KLAX 0 0 1
KBOS 0 0 0